sensor_id;sensor_type;location;lat;lon;timestamp;P1;durP1;ratioP1;P2;durP2;ratioP2
15393;SDS011;7795;47.986;11.868;2023-05-10T00:01:48;0.67;;;0.67;;
15393;SDS011;7795;47.986;11.868;2023-05-10T00:04:14;0.50;;;0.50;;
15393;SDS011;7795;47.986;11.868;2023-05-10T00:06:40;0.60;;;0.60;;
15393;SDS011;7795;47.986;11.868;2023-05-10T00:09:07;0.53;;;0.50;;
15393;SDS011;7795;47.986;11.868;2023-05-10T00:11:33;0.50;;;0.50;;
15393;SDS011;7795;47.986;11.868;2023-05-10T00:13:59;0.70;;;0.70;;
15393;SDS011;7795;47.986;11.868;2023-05-10T00:16:27;0.60;;;0.60;;
15393;SDS011;7795;47.986;11.868;2023-05-10T00:18:53;1.13;;;1.03;;
15393;SDS011;7795;47.986;11.868;2023-05-10T00:21:26;0.63;;;0.63;;
15393;SDS011;7795;47.986;11.868;2023-05-10T00:23:53;0.50;;;0.47;;
15393;SDS011;7795;47.986;11.868;2023-05-10T00:26:21;0.70;;;0.70;;
15393;SDS011;7795;47.986;11.868;2023-05-10T00:28:47;0.60;;;0.60;;
15393;SDS011;7795;47.986;11.868;2023-05-10T00:31:12;0.60;;;0.60;;
15393;SDS011;7795;47.986;11.868;2023-05-10T00:33:39;0.60;;;0.60;;
15393;SDS011;7795;47.986;11.868;2023-05-10T00:36:11;0.60;;;0.60;;
15393;SDS011;7795;47.986;11.868;2023-05-10T00:38:37;0.60;;;0.50;;
15393;SDS011;7795;47.986;11.868;2023-05-10T00:41:03;0.87;;;0.73;;
15393;SDS011;7795;47.986;11.868;2023-05-10T00:43:31;0.50;;;0.50;;
15393;SDS011;7795;47.986;11.868;2023-05-10T00:45:56;0.83;;;0.57;;
15393;SDS011;7795;47.986;11.868;2023-05-10T00:48:22;1.07;;;0.60;;
15393;SDS011;7795;47.986;11.868;2023-05-10T00:50:49;0.60;;;0.60;;
15393;SDS011;7795;47.986;11.868;2023-05-10T00:53:15;0.50;;;0.50;;
15393;SDS011;7795;47.986;11.868;2023-05-10T00:55:41;0.57;;;0.40;;
15393;SDS011;7795;47.986;11.868;2023-05-10T00:58:07;0.73;;;0.53;;
15393;SDS011;7795;47.986;11.868;2023-05-10T01:00:35;1.07;;;0.70;;
15393;SDS011;7795;47.986;11.868;2023-05-10T01:03:02;0.57;;;0.50;;
15393;SDS011;7795;47.986;11.868;2023-05-10T01:05:28;0.70;;;0.60;;
15393;SDS011;7795;47.986;11.868;2023-05-10T01:07:54;0.70;;;0.70;;
15393;SDS011;7795;47.986;11.868;2023-05-10T01:10:21;0.50;;;0.50;;
15393;SDS011;7795;47.986;11.868;2023-05-10T01:12:47;1.97;;;1.70;;
15393;SDS011;7795;47.986;11.868;2023-05-10T01:15:13;0.80;;;0.70;;
15393;SDS011;7795;47.986;11.868;2023-05-10T01:17:42;0.80;;;0.67;;
15393;SDS011;7795;47.986;11.868;2023-05-10T01:20:25;0.40;;;0.40;;
15393;SDS011;7795;47.986;11.868;2023-05-10T01:23:11;0.67;;;0.53;;
15393;SDS011;7795;47.986;11.868;2023-05-10T01:29:14;3.40;;;2.53;;
15393;SDS011;7795;47.986;11.868;2023-05-10T01:32:17;3.60;;;2.57;;
15393;SDS011;7795;47.986;11.868;2023-05-10T01:34:53;1.27;;;1.10;;
15393;SDS011;7795;47.986;11.868;2023-05-10T01:37:26;1.10;;;1.00;;
15393;SDS011;7795;47.986;11.868;2023-05-10T01:40:00;1.50;;;1.40;;
15393;SDS011;7795;47.986;11.868;2023-05-10T01:42:36;2.17;;;1.10;;
15393;SDS011;7795;47.986;11.868;2023-05-10T01:45:28;0.67;;;0.60;;
15393;SDS011;7795;47.986;11.868;2023-05-10T01:48:03;0.83;;;0.83;;
15393;SDS011;7795;47.986;11.868;2023-05-10T01:51:02;1.30;;;1.20;;
15393;SDS011;7795;47.986;11.868;2023-05-10T01:53:29;1.33;;;0.90;;
15393;SDS011;7795;47.986;11.868;2023-05-10T01:55:57;1.10;;;1.00;;
15393;SDS011;7795;47.986;11.868;2023-05-10T01:58:26;0.73;;;0.73;;
15393;SDS011;7795;47.986;11.868;2023-05-10T02:00:54;0.80;;;0.80;;
15393;SDS011;7795;47.986;11.868;2023-05-10T02:03:24;1.83;;;1.63;;
15393;SDS011;7795;47.986;11.868;2023-05-10T02:05:52;2.03;;;1.50;;
15393;SDS011;7795;47.986;11.868;2023-05-10T02:08:20;2.80;;;2.50;;
15393;SDS011;7795;47.986;11.868;2023-05-10T02:10:47;6.60;;;5.53;;
15393;SDS011;7795;47.986;11.868;2023-05-10T02:13:15;7.77;;;6.77;;
15393;SDS011;7795;47.986;11.868;2023-05-10T02:15:43;9.30;;;8.00;;
15393;SDS011;7795;47.986;11.868;2023-05-10T02:18:11;12.03;;;9.80;;
15393;SDS011;7795;47.986;11.868;2023-05-10T02:20:40;10.57;;;8.50;;
15393;SDS011;7795;47.986;11.868;2023-05-10T02:23:10;9.70;;;8.13;;
15393;SDS011;7795;47.986;11.868;2023-05-10T02:25:37;6.77;;;5.63;;
15393;SDS011;7795;47.986;11.868;2023-05-10T02:28:04;5.90;;;4.63;;
15393;SDS011;7795;47.986;11.868;2023-05-10T02:30:32;5.20;;;4.23;;
15393;SDS011;7795;47.986;11.868;2023-05-10T02:32:59;3.03;;;2.67;;
15393;SDS011;7795;47.986;11.868;2023-05-10T02:35:40;1.67;;;1.50;;
15393;SDS011;7795;47.986;11.868;2023-05-10T02:38:38;1.60;;;1.50;;
15393;SDS011;7795;47.986;11.868;2023-05-10T02:41:05;1.40;;;1.30;;
15393;SDS011;7795;47.986;11.868;2023-05-10T02:43:34;1.60;;;1.50;;
15393;SDS011;7795;47.986;11.868;2023-05-10T02:46:01;2.53;;;2.30;;
15393;SDS011;7795;47.986;11.868;2023-05-10T02:48:27;2.27;;;2.00;;
15393;SDS011;7795;47.986;11.868;2023-05-10T02:50:55;1.50;;;1.30;;
15393;SDS011;7795;47.986;11.868;2023-05-10T02:53:40;1.83;;;1.40;;
15393;SDS011;7795;47.986;11.868;2023-05-10T02:56:11;2.67;;;1.97;;
15393;SDS011;7795;47.986;11.868;2023-05-10T02:58:39;3.43;;;2.33;;
15393;SDS011;7795;47.986;11.868;2023-05-10T03:01:05;2.80;;;2.10;;
15393;SDS011;7795;47.986;11.868;2023-05-10T03:03:32;2.13;;;1.23;;
15393;SDS011;7795;47.986;11.868;2023-05-10T03:06:00;0.93;;;0.73;;
15393;SDS011;7795;47.986;11.868;2023-05-10T03:08:26;0.87;;;0.70;;
15393;SDS011;7795;47.986;11.868;2023-05-10T03:10:55;1.60;;;0.77;;
15393;SDS011;7795;47.986;11.868;2023-05-10T03:13:48;1.17;;;0.77;;
15393;SDS011;7795;47.986;11.868;2023-05-10T03:16:22;0.90;;;0.70;;
15393;SDS011;7795;47.986;11.868;2023-05-10T03:19:11;0.50;;;0.50;;
15393;SDS011;7795;47.986;11.868;2023-05-10T03:21:51;0.63;;;0.60;;
15393;SDS011;7795;47.986;11.868;2023-05-10T03:24:45;0.80;;;0.60;;
15393;SDS011;7795;47.986;11.868;2023-05-10T03:27:13;1.23;;;0.67;;
15393;SDS011;7795;47.986;11.868;2023-05-10T03:29:40;0.60;;;0.50;;
15393;SDS011;7795;47.986;11.868;2023-05-10T03:32:07;1.80;;;0.50;;
15393;SDS011;7795;47.986;11.868;2023-05-10T03:34:33;0.53;;;0.53;;
15393;SDS011;7795;47.986;11.868;2023-05-10T03:37:00;0.60;;;0.60;;
15393;SDS011;7795;47.986;11.868;2023-05-10T03:39:26;0.57;;;0.57;;
15393;SDS011;7795;47.986;11.868;2023-05-10T03:41:52;0.60;;;0.60;;
15393;SDS011;7795;47.986;11.868;2023-05-10T03:44:18;0.50;;;0.50;;
15393;SDS011;7795;47.986;11.868;2023-05-10T03:46:43;0.70;;;0.50;;
15393;SDS011;7795;47.986;11.868;2023-05-10T03:49:09;1.43;;;0.70;;
15393;SDS011;7795;47.986;11.868;2023-05-10T03:51:35;0.50;;;0.50;;
15393;SDS011;7795;47.986;11.868;2023-05-10T03:54:02;0.53;;;0.50;;
15393;SDS011;7795;47.986;11.868;2023-05-10T03:56:28;0.60;;;0.60;;
15393;SDS011;7795;47.986;11.868;2023-05-10T03:58:55;1.23;;;0.70;;
15393;SDS011;7795;47.986;11.868;2023-05-10T04:01:20;0.50;;;0.50;;
15393;SDS011;7795;47.986;11.868;2023-05-10T04:03:46;0.40;;;0.40;;
15393;SDS011;7795;47.986;11.868;2023-05-10T04:06:12;0.97;;;0.60;;
15393;SDS011;7795;47.986;11.868;2023-05-10T04:08:38;0.43;;;0.40;;
15393;SDS011;7795;47.986;11.868;2023-05-10T04:11:06;0.40;;;0.40;;
15393;SDS011;7795;47.986;11.868;2023-05-10T04:13:57;0.87;;;0.60;;
15393;SDS011;7795;47.986;11.868;2023-05-10T04:16:22;0.60;;;0.50;;
15393;SDS011;7795;47.986;11.868;2023-05-10T04:18:48;1.40;;;0.93;;
15393;SDS011;7795;47.986;11.868;2023-05-10T04:21:14;1.00;;;0.83;;
15393;SDS011;7795;47.986;11.868;2023-05-10T04:23:40;0.53;;;0.53;;
15393;SDS011;7795;47.986;11.868;2023-05-10T04:26:07;1.70;;;0.50;;
15393;SDS011;7795;47.986;11.868;2023-05-10T04:28:36;0.40;;;0.40;;
15393;SDS011;7795;47.986;11.868;2023-05-10T04:31:02;0.60;;;0.50;;
15393;SDS011;7795;47.986;11.868;2023-05-10T04:33:28;0.40;;;0.40;;
15393;SDS011;7795;47.986;11.868;2023-05-10T04:35:54;0.97;;;0.60;;
15393;SDS011;7795;47.986;11.868;2023-05-10T04:38:20;0.70;;;0.50;;
15393;SDS011;7795;47.986;11.868;2023-05-10T04:40:46;0.73;;;0.40;;
15393;SDS011;7795;47.986;11.868;2023-05-10T04:43:13;0.90;;;0.50;;
15393;SDS011;7795;47.986;11.868;2023-05-10T04:45:55;0.40;;;0.40;;
15393;SDS011;7795;47.986;11.868;2023-05-10T04:48:35;0.40;;;0.40;;
15393;SDS011;7795;47.986;11.868;2023-05-10T04:51:01;1.30;;;0.50;;
15393;SDS011;7795;47.986;11.868;2023-05-10T04:53:28;1.60;;;0.60;;
15393;SDS011;7795;47.986;11.868;2023-05-10T04:55:54;0.97;;;0.67;;
15393;SDS011;7795;47.986;11.868;2023-05-10T04:58:22;0.87;;;0.60;;
15393;SDS011;7795;47.986;11.868;2023-05-10T05:00:52;0.70;;;0.70;;
15393;SDS011;7795;47.986;11.868;2023-05-10T05:03:18;1.67;;;0.87;;
15393;SDS011;7795;47.986;11.868;2023-05-10T05:05:44;2.63;;;0.87;;
15393;SDS011;7795;47.986;11.868;2023-05-10T05:08:10;2.17;;;0.70;;
15393;SDS011;7795;47.986;11.868;2023-05-10T05:10:35;0.60;;;0.57;;
15393;SDS011;7795;47.986;11.868;2023-05-10T05:13:01;1.70;;;0.60;;
15393;SDS011;7795;47.986;11.868;2023-05-10T05:15:30;0.70;;;0.60;;
15393;SDS011;7795;47.986;11.868;2023-05-10T05:17:56;0.97;;;0.70;;
15393;SDS011;7795;47.986;11.868;2023-05-10T05:20:22;1.80;;;0.60;;
15393;SDS011;7795;47.986;11.868;2023-05-10T05:22:48;1.27;;;0.40;;
15393;SDS011;7795;47.986;11.868;2023-05-10T05:25:14;0.50;;;0.50;;
15393;SDS011;7795;47.986;11.868;2023-05-10T05:27:40;0.53;;;0.53;;
15393;SDS011;7795;47.986;11.868;2023-05-10T05:30:07;2.40;;;0.70;;
15393;SDS011;7795;47.986;11.868;2023-05-10T05:32:35;0.40;;;0.40;;
15393;SDS011;7795;47.986;11.868;2023-05-10T05:35:03;0.53;;;0.53;;
15393;SDS011;7795;47.986;11.868;2023-05-10T05:37:51;0.50;;;0.50;;
15393;SDS011;7795;47.986;11.868;2023-05-10T05:40:17;0.40;;;0.40;;
15393;SDS011;7795;47.986;11.868;2023-05-10T05:42:55;0.57;;;0.50;;
15393;SDS011;7795;47.986;11.868;2023-05-10T05:45:21;0.47;;;0.47;;
15393;SDS011;7795;47.986;11.868;2023-05-10T05:47:48;0.77;;;0.50;;
15393;SDS011;7795;47.986;11.868;2023-05-10T05:50:14;0.87;;;0.50;;
15393;SDS011;7795;47.986;11.868;2023-05-10T05:52:39;0.40;;;0.40;;
15393;SDS011;7795;47.986;11.868;2023-05-10T05:55:06;2.20;;;0.50;;
15393;SDS011;7795;47.986;11.868;2023-05-10T05:57:32;0.70;;;0.57;;
15393;SDS011;7795;47.986;11.868;2023-05-10T05:59:58;0.57;;;0.47;;
15393;SDS011;7795;47.986;11.868;2023-05-10T06:02:24;1.33;;;0.60;;
15393;SDS011;7795;47.986;11.868;2023-05-10T06:04:51;1.70;;;0.63;;
15393;SDS011;7795;47.986;11.868;2023-05-10T06:07:17;1.73;;;0.67;;
15393;SDS011;7795;47.986;11.868;2023-05-10T06:09:43;0.50;;;0.40;;
15393;SDS011;7795;47.986;11.868;2023-05-10T06:12:09;1.00;;;0.53;;
15393;SDS011;7795;47.986;11.868;2023-05-10T06:14:34;2.20;;;0.70;;
15393;SDS011;7795;47.986;11.868;2023-05-10T06:17:00;0.93;;;0.70;;
15393;SDS011;7795;47.986;11.868;2023-05-10T06:19:28;0.57;;;0.30;;
15393;SDS011;7795;47.986;11.868;2023-05-10T06:21:56;1.33;;;0.70;;
15393;SDS011;7795;47.986;11.868;2023-05-10T06:24:21;1.63;;;0.80;;
15393;SDS011;7795;47.986;11.868;2023-05-10T06:26:47;0.53;;;0.40;;
15393;SDS011;7795;47.986;11.868;2023-05-10T06:29:15;1.30;;;0.57;;
15393;SDS011;7795;47.986;11.868;2023-05-10T06:31:40;1.60;;;0.70;;
15393;SDS011;7795;47.986;11.868;2023-05-10T06:34:06;1.87;;;1.03;;
15393;SDS011;7795;47.986;11.868;2023-05-10T06:36:33;15.13;;;3.43;;
15393;SDS011;7795;47.986;11.868;2023-05-10T06:39:00;3.57;;;1.17;;
15393;SDS011;7795;47.986;11.868;2023-05-10T06:41:26;5.30;;;1.33;;
15393;SDS011;7795;47.986;11.868;2023-05-10T06:43:52;12.53;;;2.73;;
15393;SDS011;7795;47.986;11.868;2023-05-10T06:46:17;10.70;;;1.70;;
15393;SDS011;7795;47.986;11.868;2023-05-10T06:48:44;1.40;;;1.00;;
15393;SDS011;7795;47.986;11.868;2023-05-10T06:51:09;4.63;;;1.27;;
15393;SDS011;7795;47.986;11.868;2023-05-10T06:53:35;5.03;;;0.93;;
15393;SDS011;7795;47.986;11.868;2023-05-10T06:56:03;2.00;;;0.60;;
15393;SDS011;7795;47.986;11.868;2023-05-10T06:58:28;2.53;;;1.00;;
15393;SDS011;7795;47.986;11.868;2023-05-10T07:00:54;2.90;;;0.77;;
15393;SDS011;7795;47.986;11.868;2023-05-10T07:03:27;6.70;;;1.53;;
15393;SDS011;7795;47.986;11.868;2023-05-10T07:05:52;3.80;;;0.80;;
15393;SDS011;7795;47.986;11.868;2023-05-10T07:08:18;0.80;;;0.70;;
15393;SDS011;7795;47.986;11.868;2023-05-10T07:10:44;1.13;;;0.60;;
15393;SDS011;7795;47.986;11.868;2023-05-10T07:13:11;0.90;;;0.70;;
15393;SDS011;7795;47.986;11.868;2023-05-10T07:15:37;1.27;;;0.57;;
15393;SDS011;7795;47.986;11.868;2023-05-10T07:18:03;2.27;;;1.47;;
15393;SDS011;7795;47.986;11.868;2023-05-10T07:20:31;1.60;;;0.90;;
15393;SDS011;7795;47.986;11.868;2023-05-10T07:22:57;2.10;;;1.10;;
15393;SDS011;7795;47.986;11.868;2023-05-10T07:25:22;1.37;;;0.97;;
15393;SDS011;7795;47.986;11.868;2023-05-10T07:27:49;0.93;;;0.93;;
15393;SDS011;7795;47.986;11.868;2023-05-10T07:30:17;0.90;;;0.80;;
15393;SDS011;7795;47.986;11.868;2023-05-10T07:32:43;1.80;;;0.63;;
15393;SDS011;7795;47.986;11.868;2023-05-10T07:35:10;1.70;;;0.63;;
15393;SDS011;7795;47.986;11.868;2023-05-10T07:37:35;2.00;;;0.97;;
15393;SDS011;7795;47.986;11.868;2023-05-10T07:40:01;8.50;;;1.37;;
15393;SDS011;7795;47.986;11.868;2023-05-10T07:42:27;3.00;;;0.90;;
15393;SDS011;7795;47.986;11.868;2023-05-10T07:44:53;7.53;;;1.37;;
15393;SDS011;7795;47.986;11.868;2023-05-10T07:47:21;4.10;;;1.20;;
15393;SDS011;7795;47.986;11.868;2023-05-10T07:49:47;66.83;;;9.63;;
15393;SDS011;7795;47.986;11.868;2023-05-10T07:52:12;2.47;;;1.00;;
15393;SDS011;7795;47.986;11.868;2023-05-10T07:54:38;4.73;;;1.20;;
15393;SDS011;7795;47.986;11.868;2023-05-10T07:57:04;2.80;;;0.97;;
15393;SDS011;7795;47.986;11.868;2023-05-10T07:59:30;1.90;;;1.07;;
15393;SDS011;7795;47.986;11.868;2023-05-10T08:01:56;1.00;;;0.70;;
15393;SDS011;7795;47.986;11.868;2023-05-10T08:04:23;6.10;;;1.50;;
15393;SDS011;7795;47.986;11.868;2023-05-10T08:06:49;3.07;;;1.20;;
15393;SDS011;7795;47.986;11.868;2023-05-10T08:09:14;4.23;;;1.30;;
15393;SDS011;7795;47.986;11.868;2023-05-10T08:11:41;1.33;;;0.67;;
15393;SDS011;7795;47.986;11.868;2023-05-10T08:14:07;2.40;;;0.80;;
15393;SDS011;7795;47.986;11.868;2023-05-10T08:16:32;2.63;;;0.90;;
15393;SDS011;7795;47.986;11.868;2023-05-10T08:18:59;2.47;;;0.80;;
15393;SDS011;7795;47.986;11.868;2023-05-10T08:21:26;0.80;;;0.77;;
15393;SDS011;7795;47.986;11.868;2023-05-10T08:23:52;4.83;;;1.30;;
15393;SDS011;7795;47.986;11.868;2023-05-10T08:26:18;1.40;;;0.60;;
15393;SDS011;7795;47.986;11.868;2023-05-10T08:28:43;1.30;;;0.90;;
15393;SDS011;7795;47.986;11.868;2023-05-10T08:31:09;2.73;;;0.70;;
15393;SDS011;7795;47.986;11.868;2023-05-10T08:33:35;3.27;;;1.10;;
15393;SDS011;7795;47.986;11.868;2023-05-10T08:36:01;0.83;;;0.70;;
15393;SDS011;7795;47.986;11.868;2023-05-10T08:38:28;5.23;;;1.10;;
15393;SDS011;7795;47.986;11.868;2023-05-10T08:40:54;0.70;;;0.70;;
15393;SDS011;7795;47.986;11.868;2023-05-10T08:43:25;0.60;;;0.60;;
15393;SDS011;7795;47.986;11.868;2023-05-10T08:45:53;1.20;;;0.80;;
15393;SDS011;7795;47.986;11.868;2023-05-10T08:48:19;6.83;;;0.97;;
15393;SDS011;7795;47.986;11.868;2023-05-10T08:50:48;0.87;;;0.77;;
15393;SDS011;7795;47.986;11.868;2023-05-10T08:53:17;4.60;;;1.17;;
15393;SDS011;7795;47.986;11.868;2023-05-10T08:55:46;3.77;;;0.90;;
15393;SDS011;7795;47.986;11.868;2023-05-10T08:58:12;0.93;;;0.70;;
15393;SDS011;7795;47.986;11.868;2023-05-10T09:00:38;2.27;;;0.77;;
15393;SDS011;7795;47.986;11.868;2023-05-10T09:03:05;0.70;;;0.60;;
15393;SDS011;7795;47.986;11.868;2023-05-10T09:05:31;2.83;;;1.00;;
15393;SDS011;7795;47.986;11.868;2023-05-10T09:07:57;0.50;;;0.50;;
15393;SDS011;7795;47.986;11.868;2023-05-10T09:10:24;0.97;;;0.57;;
15393;SDS011;7795;47.986;11.868;2023-05-10T09:12:53;2.23;;;0.70;;
15393;SDS011;7795;47.986;11.868;2023-05-10T09:15:21;1.27;;;0.80;;
15393;SDS011;7795;47.986;11.868;2023-05-10T09:17:56;1.30;;;0.80;;
15393;SDS011;7795;47.986;11.868;2023-05-10T09:20:24;4.03;;;0.90;;
15393;SDS011;7795;47.986;11.868;2023-05-10T09:22:50;0.90;;;0.80;;
15393;SDS011;7795;47.986;11.868;2023-05-10T09:25:16;1.97;;;1.10;;
15393;SDS011;7795;47.986;11.868;2023-05-10T09:27:44;1.73;;;0.60;;
15393;SDS011;7795;47.986;11.868;2023-05-10T09:30:14;1.83;;;0.67;;
15393;SDS011;7795;47.986;11.868;2023-05-10T09:32:42;1.03;;;0.83;;
15393;SDS011;7795;47.986;11.868;2023-05-10T09:35:09;0.60;;;0.60;;
15393;SDS011;7795;47.986;11.868;2023-05-10T09:37:35;0.70;;;0.70;;
15393;SDS011;7795;47.986;11.868;2023-05-10T09:40:07;0.80;;;0.70;;
15393;SDS011;7795;47.986;11.868;2023-05-10T09:42:36;1.03;;;0.70;;
15393;SDS011;7795;47.986;11.868;2023-05-10T09:45:02;0.83;;;0.83;;
15393;SDS011;7795;47.986;11.868;2023-05-10T09:47:32;1.57;;;0.60;;
15393;SDS011;7795;47.986;11.868;2023-05-10T09:49:59;0.40;;;0.40;;
15393;SDS011;7795;47.986;11.868;2023-05-10T09:52:28;0.87;;;0.80;;
15393;SDS011;7795;47.986;11.868;2023-05-10T09:54:55;1.23;;;0.80;;
15393;SDS011;7795;47.986;11.868;2023-05-10T09:57:21;2.93;;;0.93;;
15393;SDS011;7795;47.986;11.868;2023-05-10T09:59:47;2.03;;;0.63;;
15393;SDS011;7795;47.986;11.868;2023-05-10T10:02:14;2.20;;;1.00;;
15393;SDS011;7795;47.986;11.868;2023-05-10T10:04:41;1.80;;;1.00;;
15393;SDS011;7795;47.986;11.868;2023-05-10T10:07:07;1.73;;;1.13;;
15393;SDS011;7795;47.986;11.868;2023-05-10T10:09:34;2.00;;;1.10;;
15393;SDS011;7795;47.986;11.868;2023-05-10T10:12:00;1.53;;;0.90;;
15393;SDS011;7795;47.986;11.868;2023-05-10T10:14:27;1.20;;;0.70;;
15393;SDS011;7795;47.986;11.868;2023-05-10T10:16:53;3.13;;;0.80;;
15393;SDS011;7795;47.986;11.868;2023-05-10T10:19:19;1.03;;;0.70;;
15393;SDS011;7795;47.986;11.868;2023-05-10T10:21:47;1.37;;;0.50;;
15393;SDS011;7795;47.986;11.868;2023-05-10T10:24:36;0.73;;;0.50;;
15393;SDS011;7795;47.986;11.868;2023-05-10T10:27:04;3.93;;;0.80;;
15393;SDS011;7795;47.986;11.868;2023-05-10T10:29:38;0.80;;;0.77;;
15393;SDS011;7795;47.986;11.868;2023-05-10T10:32:19;1.03;;;0.80;;
15393;SDS011;7795;47.986;11.868;2023-05-10T10:34:59;1.00;;;0.60;;
15393;SDS011;7795;47.986;11.868;2023-05-10T10:40:22;0.93;;;0.40;;
15393;SDS011;7795;47.986;11.868;2023-05-10T10:42:50;0.97;;;0.80;;
15393;SDS011;7795;47.986;11.868;2023-05-10T10:45:16;1.20;;;0.63;;
15393;SDS011;7795;47.986;11.868;2023-05-10T10:47:42;1.00;;;0.67;;
15393;SDS011;7795;47.986;11.868;2023-05-10T10:50:08;0.90;;;0.83;;
15393;SDS011;7795;47.986;11.868;2023-05-10T10:52:36;1.53;;;1.27;;
15393;SDS011;7795;47.986;11.868;2023-05-10T10:55:05;0.70;;;0.70;;
15393;SDS011;7795;47.986;11.868;2023-05-10T10:57:44;0.70;;;0.70;;
15393;SDS011;7795;47.986;11.868;2023-05-10T11:00:18;3.50;;;0.77;;
15393;SDS011;7795;47.986;11.868;2023-05-10T11:02:50;1.30;;;0.93;;
15393;SDS011;7795;47.986;11.868;2023-05-10T11:05:23;0.70;;;0.70;;
15393;SDS011;7795;47.986;11.868;2023-05-10T11:08:08;3.10;;;0.90;;
15393;SDS011;7795;47.986;11.868;2023-05-10T11:10:40;3.30;;;1.10;;
15393;SDS011;7795;47.986;11.868;2023-05-10T11:13:15;21.30;;;3.37;;
15393;SDS011;7795;47.986;11.868;2023-05-10T11:15:43;15.10;;;1.80;;
15393;SDS011;7795;47.986;11.868;2023-05-10T11:18:17;21.83;;;2.53;;
15393;SDS011;7795;47.986;11.868;2023-05-10T11:20:44;20.23;;;2.40;;
15393;SDS011;7795;47.986;11.868;2023-05-10T11:23:15;16.47;;;2.30;;
15393;SDS011;7795;47.986;11.868;2023-05-10T11:25:44;21.83;;;3.17;;
15393;SDS011;7795;47.986;11.868;2023-05-10T11:28:20;1.93;;;0.80;;
15393;SDS011;7795;47.986;11.868;2023-05-10T11:30:46;6.33;;;1.67;;
15393;SDS011;7795;47.986;11.868;2023-05-10T11:33:16;9.30;;;1.63;;
15393;SDS011;7795;47.986;11.868;2023-05-10T11:35:42;4.23;;;1.20;;
15393;SDS011;7795;47.986;11.868;2023-05-10T11:38:09;3.37;;;1.00;;
15393;SDS011;7795;47.986;11.868;2023-05-10T11:40:35;5.93;;;2.50;;
15393;SDS011;7795;47.986;11.868;2023-05-10T11:43:04;6.20;;;1.60;;
15393;SDS011;7795;47.986;11.868;2023-05-10T11:45:33;5.23;;;1.67;;
15393;SDS011;7795;47.986;11.868;2023-05-10T11:47:59;11.13;;;1.63;;
15393;SDS011;7795;47.986;11.868;2023-05-10T11:50:26;2.60;;;1.00;;
15393;SDS011;7795;47.986;11.868;2023-05-10T11:52:52;1.47;;;0.80;;
15393;SDS011;7795;47.986;11.868;2023-05-10T11:55:18;4.10;;;1.30;;
15393;SDS011;7795;47.986;11.868;2023-05-10T11:57:44;2.03;;;1.20;;
15393;SDS011;7795;47.986;11.868;2023-05-10T12:00:13;2.23;;;1.23;;
15393;SDS011;7795;47.986;11.868;2023-05-10T12:02:39;2.40;;;1.00;;
15393;SDS011;7795;47.986;11.868;2023-05-10T12:05:05;2.20;;;1.37;;
15393;SDS011;7795;47.986;11.868;2023-05-10T12:07:32;2.13;;;1.13;;
15393;SDS011;7795;47.986;11.868;2023-05-10T12:10:08;0.97;;;0.60;;
15393;SDS011;7795;47.986;11.868;2023-05-10T12:12:36;2.13;;;1.00;;
15393;SDS011;7795;47.986;11.868;2023-05-10T12:15:03;1.67;;;0.70;;
15393;SDS011;7795;47.986;11.868;2023-05-10T12:17:31;1.07;;;0.60;;
15393;SDS011;7795;47.986;11.868;2023-05-10T12:19:58;1.17;;;0.70;;
15393;SDS011;7795;47.986;11.868;2023-05-10T12:22:37;1.60;;;0.93;;
15393;SDS011;7795;47.986;11.868;2023-05-10T12:25:03;0.50;;;0.50;;
15393;SDS011;7795;47.986;11.868;2023-05-10T12:27:31;0.70;;;0.60;;
15393;SDS011;7795;47.986;11.868;2023-05-10T12:29:58;0.90;;;0.60;;
15393;SDS011;7795;47.986;11.868;2023-05-10T12:32:38;1.37;;;0.80;;
15393;SDS011;7795;47.986;11.868;2023-05-10T12:35:05;1.47;;;0.80;;
15393;SDS011;7795;47.986;11.868;2023-05-10T12:37:32;1.13;;;0.90;;
15393;SDS011;7795;47.986;11.868;2023-05-10T12:40:04;0.93;;;0.80;;
15393;SDS011;7795;47.986;11.868;2023-05-10T12:42:47;1.20;;;0.87;;
15393;SDS011;7795;47.986;11.868;2023-05-10T12:45:13;2.57;;;1.00;;
15393;SDS011;7795;47.986;11.868;2023-05-10T12:47:41;2.77;;;0.90;;
15393;SDS011;7795;47.986;11.868;2023-05-10T12:50:08;2.13;;;0.97;;
15393;SDS011;7795;47.986;11.868;2023-05-10T12:52:34;1.33;;;1.07;;
15393;SDS011;7795;47.986;11.868;2023-05-10T12:55:00;3.40;;;1.43;;
15393;SDS011;7795;47.986;11.868;2023-05-10T12:57:28;1.07;;;0.93;;
15393;SDS011;7795;47.986;11.868;2023-05-10T12:59:54;1.83;;;0.70;;
15393;SDS011;7795;47.986;11.868;2023-05-10T13:02:20;2.30;;;1.10;;
15393;SDS011;7795;47.986;11.868;2023-05-10T13:04:49;1.60;;;0.73;;
15393;SDS011;7795;47.986;11.868;2023-05-10T13:07:15;0.70;;;0.60;;
15393;SDS011;7795;47.986;11.868;2023-05-10T13:09:41;1.30;;;0.70;;
15393;SDS011;7795;47.986;11.868;2023-05-10T13:12:07;3.77;;;1.00;;
15393;SDS011;7795;47.986;11.868;2023-05-10T13:14:33;2.70;;;1.00;;
15393;SDS011;7795;47.986;11.868;2023-05-10T13:16:58;1.03;;;0.80;;
15393;SDS011;7795;47.986;11.868;2023-05-10T13:19:25;0.80;;;0.63;;
15393;SDS011;7795;47.986;11.868;2023-05-10T13:21:55;1.10;;;0.70;;
15393;SDS011;7795;47.986;11.868;2023-05-10T13:24:21;1.87;;;0.87;;
15393;SDS011;7795;47.986;11.868;2023-05-10T13:26:47;1.57;;;0.70;;
15393;SDS011;7795;47.986;11.868;2023-05-10T13:29:13;1.00;;;0.80;;
15393;SDS011;7795;47.986;11.868;2023-05-10T13:31:42;4.50;;;1.20;;
15393;SDS011;7795;47.986;11.868;2023-05-10T13:34:08;1.70;;;0.97;;
15393;SDS011;7795;47.986;11.868;2023-05-10T13:36:34;1.80;;;0.70;;
15393;SDS011;7795;47.986;11.868;2023-05-10T13:39:01;0.77;;;0.70;;
15393;SDS011;7795;47.986;11.868;2023-05-10T13:41:37;1.53;;;0.93;;
15393;SDS011;7795;47.986;11.868;2023-05-10T13:44:03;2.00;;;0.87;;
15393;SDS011;7795;47.986;11.868;2023-05-10T13:46:29;1.53;;;0.70;;
15393;SDS011;7795;47.986;11.868;2023-05-10T13:48:56;1.20;;;0.90;;
15393;SDS011;7795;47.986;11.868;2023-05-10T13:51:21;0.90;;;0.90;;
15393;SDS011;7795;47.986;11.868;2023-05-10T13:53:48;0.80;;;0.77;;
15393;SDS011;7795;47.986;11.868;2023-05-10T13:56:15;2.30;;;0.70;;
15393;SDS011;7795;47.986;11.868;2023-05-10T13:58:44;1.67;;;1.10;;
15393;SDS011;7795;47.986;11.868;2023-05-10T14:01:10;0.83;;;0.70;;
15393;SDS011;7795;47.986;11.868;2023-05-10T14:03:37;1.90;;;1.07;;
15393;SDS011;7795;47.986;11.868;2023-05-10T14:06:03;2.00;;;1.17;;
15393;SDS011;7795;47.986;11.868;2023-05-10T14:08:29;2.67;;;1.40;;
15393;SDS011;7795;47.986;11.868;2023-05-10T14:10:54;1.03;;;0.93;;
15393;SDS011;7795;47.986;11.868;2023-05-10T14:13:23;2.63;;;1.57;;
15393;SDS011;7795;47.986;11.868;2023-05-10T14:15:50;1.33;;;0.90;;
15393;SDS011;7795;47.986;11.868;2023-05-10T14:18:16;2.60;;;1.50;;
15393;SDS011;7795;47.986;11.868;2023-05-10T14:20:42;1.13;;;0.90;;
15393;SDS011;7795;47.986;11.868;2023-05-10T14:23:08;1.17;;;0.90;;
15393;SDS011;7795;47.986;11.868;2023-05-10T14:25:34;1.83;;;1.00;;
15393;SDS011;7795;47.986;11.868;2023-05-10T14:28:00;1.87;;;0.90;;
15393;SDS011;7795;47.986;11.868;2023-05-10T14:30:27;0.80;;;0.70;;
15393;SDS011;7795;47.986;11.868;2023-05-10T14:32:55;1.63;;;1.07;;
15393;SDS011;7795;47.986;11.868;2023-05-10T14:35:23;1.07;;;0.70;;
15393;SDS011;7795;47.986;11.868;2023-05-10T14:37:49;0.80;;;0.70;;
15393;SDS011;7795;47.986;11.868;2023-05-10T14:40:15;1.23;;;0.77;;
15393;SDS011;7795;47.986;11.868;2023-05-10T14:42:42;1.30;;;0.87;;
15393;SDS011;7795;47.986;11.868;2023-05-10T14:45:08;3.93;;;1.33;;
15393;SDS011;7795;47.986;11.868;2023-05-10T14:47:36;1.73;;;0.83;;
15393;SDS011;7795;47.986;11.868;2023-05-10T14:50:02;1.77;;;0.93;;
15393;SDS011;7795;47.986;11.868;2023-05-10T14:52:28;1.27;;;0.70;;
15393;SDS011;7795;47.986;11.868;2023-05-10T14:54:54;0.90;;;0.80;;
15393;SDS011;7795;47.986;11.868;2023-05-10T14:57:20;2.53;;;0.90;;
15393;SDS011;7795;47.986;11.868;2023-05-10T14:59:46;1.73;;;1.00;;
15393;SDS011;7795;47.986;11.868;2023-05-10T15:02:13;1.17;;;1.00;;